伊豆諸島METAR電文


新島(RJAN)
07/19 17:00
RJAN 190800Z 28014KT 9999 SCT008 BKN015 29/27 Q1010 RMK A2984=

神津島(RJAZ)
07/19 17:00
RJAZ 190800Z 23016KT 9999 BKN007 28/27 Q1011 RMK A2987=

伊豆大島(RJTO)
07/19 17:00
METAR RJTO 190800Z 21015KT 9999 FEW005 BKN/// 28/27 Q1009 RMK 1ST005
A2982=

三宅島(RJTQ)
07/19 17:00
RJTQ 190800Z 23015KT 9999 SCT012 BKN020 29/28 Q1010 RMK A2984=

八丈島(RJTH)
07/19 17:00
RJTH 190800Z 23014KT 9999 FEW012 SCTXXX 29/28 Q1012 RMK A2991=

硫黄島(RJAW)
07/19 18:00
METAR RJAW 190900Z 10011KT 9999 FEW015 SCT/// 29/25 Q1014 RMK 2CU015
A2996 WIND BY EQPT/25=

南鳥島(RJAM)
07/19 18:00
METAR RJAM 190900Z NIL=

父島(RJAO)
07/19 18:00
METAR RJAO 190900Z NIL=
Copyright(c) 2014 International Meteorological & Oceanographic Consultants Co,.Ltd. All Rights Reserved. Design by http://f-tpl.com